Time;durP1;ratioP1;P1;durP2;ratioP2;P2;SDS_P1;SDS_P2;PMS_P1;PMS_P2;Temp;Humidity;BMP_temperature;BMP_pressure;BME280_temperature;BME280_humidity;BME280_pressure;Samples;Min_cycle;Max_cycle;Signal;HPM_P1;HPM_P2
2022/03/11 00:01:37;;;;;;;12.48;7.32;;;;;;;;;;4955179;28;20534;-61
2022/03/11 00:04:23;;;;;;;12.10;7.47;;;;;;;;;;4965018;28;20059;-62
2022/03/11 00:06:50;;;;;;;15.35;7.55;;;;;;;;;;4959769;28;20053;-62
2022/03/11 00:09:17;;;;;;;17.52;8.55;;;;;;;;;;4957593;28;20058;-62
2022/03/11 00:11:43;;;;;;;13.10;7.70;;;;;;;;;;4974001;28;20142;-62
2022/03/11 00:14:10;;;;;;;12.82;7.10;;;;;;;;;;4962566;28;20076;-62
2022/03/11 00:16:36;;;;;;;14.85;7.30;;;;;;;;;;4962925;28;20049;-62
2022/03/11 00:19:02;;;;;;;14.35;8.02;;;;;;;;;;4955045;28;20130;-62
2022/03/11 00:21:32;;;;;;;15.32;8.38;;;;;;;;;;4959336;28;20054;-62
2022/03/11 00:23:58;;;;;;;13.40;7.97;;;;;;;;;;4957099;28;20051;-62
2022/03/11 00:26:25;;;;;;;14.73;8.20;;;;;;;;;;4984207;28;20077;-63
2022/03/11 00:28:51;;;;;;;15.07;8.38;;;;;;;;;;4969309;28;20058;-62
2022/03/11 00:31:17;;;;;;;12.75;7.30;;;;;;;;;;4960916;28;20055;-61
2022/03/11 00:33:44;;;;;;;15.25;8.43;;;;;;;;;;4975785;28;20559;-62
2022/03/11 00:36:10;;;;;;;13.25;7.65;;;;;;;;;;4961775;28;20050;-61
2022/03/11 00:38:37;;;;;;;12.73;8.15;;;;;;;;;;4963754;28;20059;-62
2022/03/11 00:41:04;;;;;;;16.17;9.00;;;;;;;;;;4963096;28;20050;-62
2022/03/11 00:43:30;;;;;;;15.55;8.57;;;;;;;;;;4978112;28;20052;-62
2022/03/11 00:45:56;;;;;;;13.52;8.10;;;;;;;;;;4980795;28;20058;-61
2022/03/11 00:48:23;;;;;;;15.00;8.73;;;;;;;;;;4962400;28;20700;-61
2022/03/11 00:50:49;;;;;;;15.93;9.10;;;;;;;;;;4978069;28;20050;-61
2022/03/11 00:53:15;;;;;;;14.88;8.50;;;;;;;;;;4977074;28;20054;-62
2022/03/11 00:55:42;;;;;;;14.48;8.13;;;;;;;;;;4980702;28;20042;-62
2022/03/11 00:58:08;;;;;;;18.52;9.57;;;;;;;;;;4972836;28;20061;-62
2022/03/11 01:00:34;;;;;;;14.65;9.15;;;;;;;;;;4983070;28;20506;-61
2022/03/11 01:03:01;;;;;;;16.30;8.50;;;;;;;;;;4982288;28;20313;-63
2022/03/11 01:05:27;;;;;;;14.32;8.38;;;;;;;;;;4967035;28;20047;-63
2022/03/11 01:07:54;;;;;;;18.23;9.35;;;;;;;;;;4978773;28;20435;-62
2022/03/11 01:10:20;;;;;;;15.43;8.95;;;;;;;;;;4978254;28;20049;-62
2022/03/11 01:12:46;;;;;;;17.73;9.18;;;;;;;;;;4976780;28;20046;-63
2022/03/11 01:15:12;;;;;;;16.27;9.00;;;;;;;;;;4965183;28;20043;-63
2022/03/11 01:17:39;;;;;;;16.05;9.40;;;;;;;;;;4970181;28;20053;-63
2022/03/11 01:20:06;;;;;;;18.73;9.40;;;;;;;;;;4968907;28;20398;-63
2022/03/11 01:22:32;;;;;;;20.90;10.10;;;;;;;;;;4964888;28;20048;-63
2022/03/11 01:24:59;;;;;;;16.77;9.77;;;;;;;;;;4982795;28;20374;-63
2022/03/11 01:27:25;;;;;;;15.90;9.05;;;;;;;;;;4966916;28;20046;-63
2022/03/11 01:29:52;;;;;;;19.98;9.27;;;;;;;;;;4983830;28;20383;-62
2022/03/11 01:32:18;;;;;;;15.73;9.10;;;;;;;;;;4969894;28;20418;-62
2022/03/11 01:34:44;;;;;;;16.63;9.75;;;;;;;;;;4973639;28;20050;-62
2022/03/11 01:37:10;;;;;;;17.40;9.52;;;;;;;;;;4966863;28;20269;-62
2022/03/11 01:39:37;;;;;;;15.55;8.82;;;;;;;;;;4967767;28;20057;-63
2022/03/11 01:42:03;;;;;;;14.10;8.95;;;;;;;;;;4966363;28;20057;-62
2022/03/11 01:44:30;;;;;;;15.02;9.48;;;;;;;;;;4964716;28;20046;-62
2022/03/11 01:46:56;;;;;;;15.43;9.43;;;;;;;;;;4968755;28;20449;-63
2022/03/11 01:49:22;;;;;;;16.10;9.65;;;;;;;;;;4975029;28;20042;-62
2022/03/11 01:51:49;;;;;;;16.27;9.32;;;;;;;;;;4972534;28;20046;-63
2022/03/11 01:54:16;;;;;;;19.40;9.52;;;;;;;;;;4978513;28;20051;-63
2022/03/11 01:56:43;;;;;;;15.88;8.65;;;;;;;;;;4966528;28;20081;-62
2022/03/11 01:59:11;;;;;;;15.48;8.65;;;;;;;;;;4968243;28;20444;-63
2022/03/11 02:01:37;;;;;;;16.35;9.20;;;;;;;;;;4956954;28;20061;-62
2022/03/11 02:04:04;;;;;;;20.30;9.50;;;;;;;;;;4976719;28;20060;-63
2022/03/11 02:06:30;;;;;;;15.85;9.15;;;;;;;;;;4989607;28;20300;-63
2022/03/11 02:08:58;;;;;;;18.10;9.02;;;;;;;;;;4962577;28;20137;-63
2022/03/11 02:11:24;;;;;;;15.68;8.82;;;;;;;;;;4978405;28;20491;-63
2022/03/11 02:13:52;;;;;;;14.38;8.90;;;;;;;;;;4970598;28;20054;-62
2022/03/11 02:16:22;;;;;;;15.23;9.50;;;;;;;;;;4974636;28;20439;-63
2022/03/11 02:18:49;;;;;;;17.75;10.07;;;;;;;;;;4980677;28;20058;-63
2022/03/11 02:21:16;;;;;;;19.15;9.32;;;;;;;;;;4975162;28;20061;-63
2022/03/11 02:23:47;;;;;;;18.38;9.82;;;;;;;;;;4979952;28;20051;-63
2022/03/11 02:26:14;;;;;;;19.50;9.57;;;;;;;;;;4976664;28;20046;-63
2022/03/11 02:28:40;;;;;;;18.05;9.32;;;;;;;;;;4966090;28;20775;-62
2022/03/11 02:31:06;;;;;;;15.75;8.85;;;;;;;;;;4961000;28;20054;-63
2022/03/11 02:33:33;;;;;;;18.63;9.75;;;;;;;;;;4973489;28;20050;-63
2022/03/11 02:35:59;;;;;;;15.60;9.63;;;;;;;;;;4975986;28;20047;-62
2022/03/11 02:38:26;;;;;;;16.75;9.27;;;;;;;;;;4970171;28;20446;-63
2022/03/11 02:40:53;;;;;;;17.52;9.27;;;;;;;;;;4975948;28;20482;-63
2022/03/11 02:43:19;;;;;;;16.50;9.00;;;;;;;;;;4975965;28;20057;-63
2022/03/11 02:45:46;;;;;;;16.52;9.50;;;;;;;;;;4972149;28;20054;-63
2022/03/11 02:48:12;;;;;;;18.38;9.07;;;;;;;;;;4970117;28;20137;-63
2022/03/11 02:50:38;;;;;;;18.92;10.25;;;;;;;;;;4974565;28;20061;-63
2022/03/11 02:53:05;;;;;;;15.77;9.60;;;;;;;;;;4967049;28;20156;-63
2022/03/11 02:55:31;;;;;;;17.10;9.45;;;;;;;;;;4970712;28;20054;-63
2022/03/11 02:57:57;;;;;;;16.67;9.93;;;;;;;;;;4974490;28;20060;-63
2022/03/11 03:00:24;;;;;;;19.00;8.73;;;;;;;;;;4972856;28;20058;-63
2022/03/11 03:02:50;;;;;;;17.52;9.13;;;;;;;;;;4976136;28;20051;-63
2022/03/11 03:05:17;;;;;;;13.88;8.68;;;;;;;;;;4954187;28;20268;-62
2022/03/11 03:07:43;;;;;;;15.55;8.88;;;;;;;;;;4961568;28;20057;-63
2022/03/11 03:10:13;;;;;;;15.65;9.57;;;;;;;;;;4967410;28;20058;-63
2022/03/11 03:12:39;;;;;;;15.15;8.80;;;;;;;;;;4964528;28;20058;-62
2022/03/11 03:15:06;;;;;;;14.18;9.18;;;;;;;;;;4974043;28;20046;-63
2022/03/11 03:17:33;;;;;;;17.27;9.07;;;;;;;;;;4974332;28;20490;-64
2022/03/11 03:19:59;;;;;;;15.75;9.55;;;;;;;;;;4966861;28;20446;-63
2022/03/11 03:22:26;;;;;;;16.48;9.27;;;;;;;;;;4952967;28;20539;-62
2022/03/11 03:24:53;;;;;;;17.52;9.63;;;;;;;;;;4976142;28;20753;-62
2022/03/11 03:27:19;;;;;;;16.55;9.77;;;;;;;;;;4976224;28;20062;-62
2022/03/11 03:29:46;;;;;;;17.92;9.52;;;;;;;;;;4956691;28;20374;-62
2022/03/11 03:32:12;;;;;;;18.60;10.25;;;;;;;;;;4969381;28;20057;-62
2022/03/11 03:34:39;;;;;;;16.77;9.40;;;;;;;;;;4970965;28;20051;-63
2022/03/11 03:37:10;;;;;;;17.55;10.23;;;;;;;;;;4970903;28;20054;-62
2022/03/11 03:39:37;;;;;;;19.40;9.68;;;;;;;;;;4972158;28;20050;-62
2022/03/11 03:42:04;;;;;;;16.65;9.55;;;;;;;;;;4965555;28;20109;-63
2022/03/11 03:44:30;;;;;;;19.58;9.77;;;;;;;;;;4967539;28;20081;-63
2022/03/11 03:46:56;;;;;;;16.33;9.30;;;;;;;;;;4954001;28;20519;-62
2022/03/11 03:49:23;;;;;;;19.30;9.30;;;;;;;;;;4969067;28;20051;-62
2022/03/11 03:51:49;;;;;;;15.10;9.23;;;;;;;;;;4971551;28;20053;-62
2022/03/11 03:54:17;;;;;;;15.63;9.55;;;;;;;;;;4973711;28;20061;-62
2022/03/11 03:56:44;;;;;;;15.20;9.30;;;;;;;;;;4972069;28;20050;-62
2022/03/11 03:59:11;;;;;;;15.63;9.38;;;;;;;;;;4975444;28;20050;-62
2022/03/11 04:01:41;;;;;;;16.50;9.82;;;;;;;;;;4979769;28;20042;-62
2022/03/11 04:04:09;;;;;;;14.10;8.27;;;;;;;;;;4974450;28;20077;-62
2022/03/11 04:06:36;;;;;;;16.70;9.98;;;;;;;;;;4983143;28;20329;-62
2022/03/11 04:09:04;;;;;;;17.80;9.10;;;;;;;;;;4966364;28;20061;-62
2022/03/11 04:11:30;;;;;;;18.08;10.13;;;;;;;;;;4973134;28;20427;-62
2022/03/11 04:13:58;;;;;;;16.05;8.90;;;;;;;;;;4973685;28;20050;-62
2022/03/11 04:16:24;;;;;;;17.20;9.18;;;;;;;;;;4969045;28;20054;-62
2022/03/11 04:18:51;;;;;;;15.10;9.90;;;;;;;;;;4968219;28;20046;-62
2022/03/11 04:21:18;;;;;;;15.80;9.02;;;;;;;;;;4960997;28;20050;-62
2022/03/11 04:23:45;;;;;;;14.90;8.57;;;;;;;;;;4975242;28;20051;-63
2022/03/11 04:26:11;;;;;;;15.30;9.68;;;;;;;;;;4954473;28;20419;-63
2022/03/11 04:28:38;;;;;;;20.42;10.18;;;;;;;;;;4981015;28;20496;-63
2022/03/11 04:31:05;;;;;;;18.60;9.88;;;;;;;;;;4980911;28;20039;-63
2022/03/11 04:33:31;;;;;;;16.42;8.70;;;;;;;;;;4972587;28;20722;-63
2022/03/11 04:35:58;;;;;;;16.95;9.30;;;;;;;;;;4976978;28;20142;-63
2022/03/11 04:38:24;;;;;;;14.27;8.05;;;;;;;;;;4971167;28;20046;-61
2022/03/11 04:40:50;;;;;;;14.40;8.27;;;;;;;;;;4975833;28;20057;-62
2022/03/11 04:43:17;;;;;;;15.95;9.07;;;;;;;;;;4960542;28;20058;-63
2022/03/11 04:45:44;;;;;;;15.05;8.77;;;;;;;;;;4978486;28;20051;-63
2022/03/11 04:48:10;;;;;;;16.75;8.88;;;;;;;;;;4968035;28;20053;-62
2022/03/11 04:50:36;;;;;;;20.98;9.18;;;;;;;;;;4972395;28;20057;-62
2022/03/11 04:53:03;;;;;;;13.75;8.73;;;;;;;;;;4971633;28;20134;-63
2022/03/11 04:55:29;;;;;;;13.35;8.07;;;;;;;;;;4958020;28;20062;-62
2022/03/11 04:57:56;;;;;;;14.95;8.63;;;;;;;;;;4967873;28;20070;-62
2022/03/11 05:00:22;;;;;;;12.82;8.13;;;;;;;;;;4972116;28;20131;-62
2022/03/11 05:02:48;;;;;;;16.67;8.68;;;;;;;;;;4967172;28;20397;-62
2022/03/11 05:05:15;;;;;;;12.43;7.78;;;;;;;;;;4978351;28;20053;-63
2022/03/11 05:07:42;;;;;;;23.33;9.20;;;;;;;;;;4954184;28;20055;-62
2022/03/11 05:10:11;;;;;;;16.92;8.82;;;;;;;;;;4970404;28;20057;-62
2022/03/11 05:12:37;;;;;;;18.05;9.20;;;;;;;;;;4976473;28;20054;-63
2022/03/11 05:15:05;;;;;;;14.80;8.60;;;;;;;;;;4975012;28;20050;-63
2022/03/11 05:17:31;;;;;;;16.00;9.00;;;;;;;;;;4961009;28;20046;-62
2022/03/11 05:19:58;;;;;;;14.93;8.20;;;;;;;;;;4962205;28;20055;-62
2022/03/11 05:22:24;;;;;;;14.65;8.68;;;;;;;;;;4962662;28;20046;-62
2022/03/11 05:24:50;;;;;;;14.80;8.35;;;;;;;;;;4958747;28;20048;-62
2022/03/11 05:27:17;;;;;;;14.52;8.35;;;;;;;;;;4967224;28;20401;-62
2022/03/11 05:29:43;;;;;;;13.82;8.43;;;;;;;;;;4958228;28;20047;-62
2022/03/11 05:32:10;;;;;;;13.50;9.00;;;;;;;;;;4973393;28;20050;-62
2022/03/11 05:34:41;;;;;;;15.35;7.80;;;;;;;;;;4963657;28;20106;-62
2022/03/11 05:37:08;;;;;;;14.85;8.90;;;;;;;;;;4963174;28;20054;-62
2022/03/11 05:39:35;;;;;;;19.33;8.77;;;;;;;;;;4968076;28;20064;-63
2022/03/11 05:42:02;;;;;;;16.85;8.75;;;;;;;;;;4970023;28;20057;-63
2022/03/11 05:44:28;;;;;;;14.75;8.68;;;;;;;;;;4986135;28;20504;-62
2022/03/11 05:46:55;;;;;;;15.55;8.60;;;;;;;;;;4975935;28;20057;-62
2022/03/11 05:49:21;;;;;;;19.02;9.32;;;;;;;;;;4976686;28;20054;-62
2022/03/11 05:51:48;;;;;;;12.40;7.70;;;;;;;;;;4974646;28;20056;-63
2022/03/11 05:54:14;;;;;;;18.02;8.68;;;;;;;;;;4964003;28;20393;-63
2022/03/11 05:56:41;;;;;;;18.45;8.27;;;;;;;;;;4971051;28;20073;-62
2022/03/11 05:59:07;;;;;;;15.75;8.82;;;;;;;;;;4964505;28;20062;-64
2022/03/11 06:01:34;;;;;;;16.25;8.82;;;;;;;;;;4961717;28;20153;-63
2022/03/11 06:04:02;;;;;;;18.42;8.80;;;;;;;;;;4968676;28;20116;-62
2022/03/11 06:06:32;;;;;;;16.63;8.55;;;;;;;;;;4973041;28;20076;-63
2022/03/11 06:09:00;;;;;;;16.63;8.82;;;;;;;;;;4979697;28;20065;-63
2022/03/11 06:11:27;;;;;;;16.92;8.95;;;;;;;;;;4970050;28;20061;-63
2022/03/11 06:13:54;;;;;;;15.63;8.10;;;;;;;;;;4974950;28;20109;-62
2022/03/11 06:16:20;;;;;;;16.95;8.07;;;;;;;;;;4958389;28;20055;-62
2022/03/11 06:18:47;;;;;;;14.20;8.10;;;;;;;;;;4978305;28;20081;-61
2022/03/11 06:21:13;;;;;;;13.60;7.70;;;;;;;;;;4975832;28;20054;-63
2022/03/11 06:23:39;;;;;;;13.52;7.85;;;;;;;;;;4981291;28;20054;-62
2022/03/11 06:26:05;;;;;;;20.73;8.95;;;;;;;;;;4968102;28;20065;-62
2022/03/11 06:28:32;;;;;;;18.60;9.02;;;;;;;;;;4967147;28;20050;-62
2022/03/11 06:30:58;;;;;;;19.17;8.73;;;;;;;;;;4962506;28;20137;-62
2022/03/11 06:33:24;;;;;;;16.00;8.48;;;;;;;;;;4959800;28;20058;-62
2022/03/11 06:35:51;;;;;;;16.05;7.47;;;;;;;;;;4969008;28;20062;-63
2022/03/11 06:38:17;;;;;;;18.17;9.25;;;;;;;;;;4966610;28;20299;-62
2022/03/11 06:40:44;;;;;;;17.27;9.00;;;;;;;;;;4980195;28;20042;-62
2022/03/11 06:43:11;;;;;;;19.90;8.77;;;;;;;;;;4962036;28;20054;-62
2022/03/11 06:45:37;;;;;;;17.67;8.75;;;;;;;;;;4959254;28;20110;-61
2022/03/11 06:48:04;;;;;;;19.95;8.63;;;;;;;;;;4966268;28;20061;-62
2022/03/11 06:50:30;;;;;;;15.65;8.18;;;;;;;;;;4961407;28;20061;-62
2022/03/11 06:52:56;;;;;;;17.38;8.70;;;;;;;;;;4967922;28;20434;-62
2022/03/11 06:55:23;;;;;;;17.17;8.80;;;;;;;;;;4965475;28;20055;-62
2022/03/11 06:57:49;;;;;;;17.50;8.60;;;;;;;;;;4968755;28;20485;-62
2022/03/11 07:00:16;;;;;;;16.85;8.68;;;;;;;;;;4979634;28;20489;-61
2022/03/11 07:02:42;;;;;;;17.30;8.25;;;;;;;;;;4965672;28;20047;-62
2022/03/11 07:05:09;;;;;;;17.95;8.70;;;;;;;;;;4977988;28;20453;-62
2022/03/11 07:07:36;;;;;;;17.58;8.55;;;;;;;;;;4963602;28;20050;-62
2022/03/11 07:10:03;;;;;;;18.02;8.88;;;;;;;;;;4960566;28;20058;-61
2022/03/11 07:12:31;;;;;;;19.77;9.27;;;;;;;;;;4970889;28;20066;-62
2022/03/11 07:15:01;;;;;;;17.60;8.95;;;;;;;;;;4962320;28;20050;-62
2022/03/11 07:17:27;;;;;;;15.48;8.43;;;;;;;;;;4982118;28;20058;-62
2022/03/11 07:19:54;;;;;;;17.25;9.40;;;;;;;;;;4960405;28;20043;-62
2022/03/11 07:22:20;;;;;;;19.25;9.75;;;;;;;;;;4967136;28;20051;-62
2022/03/11 07:24:56;;;;;;;16.42;9.02;;;;;;;;;;4967171;28;20117;-62
2022/03/11 07:27:24;;;;;;;24.83;10.38;;;;;;;;;;4976906;28;20050;-62
2022/03/11 07:29:50;;;;;;;18.15;8.57;;;;;;;;;;4970570;28;20057;-62
2022/03/11 07:32:17;;;;;;;16.48;9.57;;;;;;;;;;4965833;28;20054;-62
2022/03/11 07:34:44;;;;;;;16.23;9.02;;;;;;;;;;4979830;28;20491;-62
2022/03/11 07:37:12;;;;;;;23.77;9.32;;;;;;;;;;4968392;28;20523;-62
2022/03/11 07:39:39;;;;;;;15.65;8.82;;;;;;;;;;4982794;28;20052;-62
2022/03/11 07:42:06;;;;;;;17.02;9.27;;;;;;;;;;4972810;28;20053;-62
2022/03/11 07:44:33;;;;;;;16.50;8.60;;;;;;;;;;4973362;28;20620;-62
2022/03/11 07:46:59;;;;;;;18.50;9.23;;;;;;;;;;4969088;28;20033;-62
2022/03/11 07:49:28;;;;;;;18.83;9.88;;;;;;;;;;4961263;28;20105;-62
2022/03/11 07:51:55;;;;;;;14.98;9.48;;;;;;;;;;4975050;28;20466;-62
2022/03/11 07:54:21;;;;;;;18.92;10.77;;;;;;;;;;4967153;28;20054;-59
2022/03/11 07:56:47;;;;;;;21.35;10.40;;;;;;;;;;4972496;28;20053;-61
2022/03/11 07:59:14;;;;;;;23.30;10.00;;;;;;;;;;4978588;28;20128;-62
2022/03/11 08:01:40;;;;;;;17.77;9.65;;;;;;;;;;4966367;28;20510;-63
2022/03/11 08:04:07;;;;;;;21.05;10.45;;;;;;;;;;4974996;28;20046;-63
2022/03/11 08:06:34;;;;;;;20.88;10.30;;;;;;;;;;4977065;28;20072;-63
2022/03/11 08:09:00;;;;;;;23.20;11.88;;;;;;;;;;4971899;28;20611;-63
2022/03/11 08:11:27;;;;;;;19.13;9.50;;;;;;;;;;4975340;28;20055;-63
2022/03/11 08:13:53;;;;;;;18.80;9.90;;;;;;;;;;4969238;28;20090;-63
2022/03/11 08:16:20;;;;;;;17.55;9.93;;;;;;;;;;4957886;28;20059;-63
2022/03/11 08:18:47;;;;;;;16.10;10.20;;;;;;;;;;4963047;28;20058;-63
2022/03/11 08:21:16;;;;;;;21.83;9.75;;;;;;;;;;4974368;28;20068;-63
2022/03/11 08:23:43;;;;;;;16.67;9.95;;;;;;;;;;4974314;28;20068;-63
2022/03/11 08:26:10;;;;;;;20.20;10.02;;;;;;;;;;4975242;28;20053;-63
2022/03/11 08:28:41;;;;;;;21.13;10.52;;;;;;;;;;4974216;28;20046;-63
2022/03/11 08:31:28;;;;;;;22.10;10.88;;;;;;;;;;4970148;28;20514;-63
2022/03/11 08:33:54;;;;;;;24.27;10.98;;;;;;;;;;4975710;28;20050;-63
2022/03/11 08:36:23;;;;;;;20.73;11.05;;;;;;;;;;4974148;28;20137;-64
2022/03/11 08:38:53;;;;;;;20.95;11.65;;;;;;;;;;4977154;28;20403;-64
2022/03/11 08:41:20;;;;;;;23.60;10.70;;;;;;;;;;4967787;28;20057;-63
2022/03/11 08:43:49;;;;;;;22.13;11.18;;;;;;;;;;4967566;28;20058;-64
2022/03/11 08:46:15;;;;;;;;;;;;;;;;;;4966451;28;20054;-63
2022/03/11 08:48:43;;;;;;;19.33;10.77;;;;;;;;;;4967393;28;20379;-63
2022/03/11 08:51:10;;;;;;;27.07;11.40;;;;;;;;;;4963288;28;20086;-63
2022/03/11 08:53:36;;;;;;;21.75;11.68;;;;;;;;;;4975756;28;20055;-63
2022/03/11 08:56:03;;;;;;;25.25;11.57;;;;;;;;;;4961656;28;20055;-63
2022/03/11 08:58:29;;;;;;;21.10;11.10;;;;;;;;;;4961249;28;20066;-63
2022/03/11 09:00:56;;;;;;;22.50;12.07;;;;;;;;;;4963076;28;20059;-63
2022/03/11 09:03:22;;;;;;;20.13;11.25;;;;;;;;;;4960827;28;20145;-64
2022/03/11 09:05:49;;;;;;;23.02;11.63;;;;;;;;;;4983052;28;20050;-63
2022/03/11 09:08:15;;;;;;;21.00;11.32;;;;;;;;;;4961835;28;20051;-64
2022/03/11 09:10:41;;;;;;;19.35;11.18;;;;;;;;;;4969488;28;20409;-63
2022/03/11 09:13:08;;;;;;;22.90;12.35;;;;;;;;;;4961347;28;20061;-64
2022/03/11 09:15:34;;;;;;;26.88;12.63;;;;;;;;;;4961883;28;20046;-64
2022/03/11 09:18:05;;;;;;;21.73;11.75;;;;;;;;;;4981713;28;20061;-64
2022/03/11 09:20:31;;;;;;;24.90;11.93;;;;;;;;;;4964703;28;20058;-64
2022/03/11 09:23:03;;;;;;;21.52;11.73;;;;;;;;;;4967585;28;20129;-64
2022/03/11 09:25:30;;;;;;;21.33;11.60;;;;;;;;;;4956439;28;20269;-64
2022/03/11 09:28:02;;;;;;;20.13;12.55;;;;;;;;;;4972415;28;20371;-64
2022/03/11 09:30:29;;;;;;;25.38;11.85;;;;;;;;;;4978340;28;20372;-64
2022/03/11 09:32:55;;;;;;;21.80;12.23;;;;;;;;;;4974975;28;20125;-64
2022/03/11 09:35:21;;;;;;;21.02;12.18;;;;;;;;;;4979443;28;20046;-64
2022/03/11 09:37:48;;;;;;;21.27;12.43;;;;;;;;;;4971079;28;20503;-64
2022/03/11 09:40:15;;;;;;;25.27;12.73;;;;;;;;;;4963511;28;20499;-64
2022/03/11 09:42:42;;;;;;;22.10;11.70;;;;;;;;;;4965386;28;20042;-64
2022/03/11 09:45:09;;;;;;;23.92;12.40;;;;;;;;;;4982188;28;20058;-64
2022/03/11 09:47:37;;;;;;;24.80;12.60;;;;;;;;;;4966372;28;20053;-64
2022/03/11 09:50:03;;;;;;;19.58;12.70;;;;;;;;;;4959398;28;20046;-64
2022/03/11 09:52:31;;;;;;;21.17;12.48;;;;;;;;;;4968288;28;20054;-64
2022/03/11 09:54:57;;;;;;;25.48;12.93;;;;;;;;;;4963411;28;20523;-64
2022/03/11 09:57:24;;;;;;;20.27;12.68;;;;;;;;;;4972924;28;20054;-64
2022/03/11 09:59:50;;;;;;;21.05;12.00;;;;;;;;;;4975613;28;20336;-64
2022/03/11 10:02:22;;;;;;;21.17;12.05;;;;;;;;;;4979801;28;20054;-65
2022/03/11 10:04:53;;;;;;;21.80;12.93;;;;;;;;;;4978684;28;20057;-64
2022/03/11 10:07:40;;;;;;;24.30;13.90;;;;;;;;;;4970626;28;20054;-64
2022/03/11 10:10:11;;;;;;;27.65;13.73;;;;;;;;;;4969366;28;20046;-64
2022/03/11 10:12:57;;;;;;;20.40;11.93;;;;;;;;;;4980856;28;20057;-64
2022/03/11 10:15:28;;;;;;;20.35;11.85;;;;;;;;;;4973652;28;20046;-64
2022/03/11 10:17:55;;;;;;;23.48;11.85;;;;;;;;;;4960055;28;20046;-64
2022/03/11 10:20:22;;;;;;;21.15;11.85;;;;;;;;;;4974435;28;20054;-64
2022/03/11 10:22:48;;;;;;;19.77;12.35;;;;;;;;;;4951027;28;20245;-63
2022/03/11 10:25:24;;;;;;;23.20;13.13;;;;;;;;;;4979027;28;20935;-64
2022/03/11 10:27:53;;;;;;;21.63;13.45;;;;;;;;;;4959469;28;20047;-64
2022/03/11 10:30:19;;;;;;;26.33;13.23;;;;;;;;;;4976167;28;20050;-64
2022/03/11 10:32:49;;;;;;;21.92;13.27;;;;;;;;;;4976058;28;20054;-64
2022/03/11 10:35:18;;;;;;;23.60;13.50;;;;;;;;;;4958045;28;20061;-64
2022/03/11 10:38:05;;;;;;;23.67;13.55;;;;;;;;;;4972448;28;20061;-64
2022/03/11 10:40:32;;;;;;;21.27;12.63;;;;;;;;;;4967661;28;20042;-65
2022/03/11 10:43:32;;;;;;;22.60;12.75;;;;;;;;;;4975445;28;20049;-64
2022/03/11 10:46:01;;;;;;;22.73;13.23;;;;;;;;;;4964975;28;20053;-65
2022/03/11 10:48:42;;;;;;;21.17;12.07;;;;;;;;;;4966505;28;20411;-64
2022/03/11 10:51:12;;;;;;;21.60;13.35;;;;;;;;;;4962153;28;20130;-64
2022/03/11 10:53:39;;;;;;;23.27;13.00;;;;;;;;;;4974381;28;20049;-65
2022/03/11 10:56:06;;;;;;;22.10;13.65;;;;;;;;;;4982166;28;20550;-65
2022/03/11 10:58:32;;;;;;;24.38;14.02;;;;;;;;;;4967664;28;20050;-65
2022/03/11 11:00:59;;;;;;;21.92;12.30;;;;;;;;;;4981435;28;20589;-65
2022/03/11 11:03:26;;;;;;;19.70;11.93;;;;;;;;;;4968231;28;20255;-65
2022/03/11 11:05:52;;;;;;;24.08;13.77;;;;;;;;;;4980897;28;20476;-65
2022/03/11 11:08:19;;;;;;;22.15;12.40;;;;;;;;;;4961776;28;20061;-65
2022/03/11 11:10:45;;;;;;;19.70;13.07;;;;;;;;;;4961363;28;20532;-64
2022/03/11 11:13:11;;;;;;;26.27;13.63;;;;;;;;;;4964065;28;20400;-65
2022/03/11 11:15:38;;;;;;;21.73;13.20;;;;;;;;;;4952144;28;20073;-65
2022/03/11 11:18:11;;;;;;;19.95;13.57;;;;;;;;;;4968304;28;20050;-64
2022/03/11 11:20:40;;;;;;;21.23;13.27;;;;;;;;;;4962307;28;20531;-65
2022/03/11 11:23:07;;;;;;;24.00;15.73;;;;;;;;;;4965265;28;20058;-65
2022/03/11 11:25:34;;;;;;;19.23;13.30;;;;;;;;;;4959661;28;20065;-64
2022/03/11 11:28:08;;;;;;;26.45;13.25;;;;;;;;;;4967180;28;20043;-64
2022/03/11 11:30:35;;;;;;;29.02;14.10;;;;;;;;;;4959749;28;20069;-64
2022/03/11 11:33:02;;;;;;;23.00;14.43;;;;;;;;;;4965375;28;20064;-64
2022/03/11 11:35:28;;;;;;;26.23;13.55;;;;;;;;;;4965959;28;20054;-64
2022/03/11 11:37:55;;;;;;;20.85;13.68;;;;;;;;;;4971673;28;20508;-64
2022/03/11 11:40:27;;;;;;;21.65;13.85;;;;;;;;;;4965025;28;20050;-64
2022/03/11 11:43:26;;;;;;;24.30;13.10;;;;;;;;;;4967812;28;20051;-64
2022/03/11 11:46:01;;;;;;;22.80;13.30;;;;;;;;;;4966312;28;20051;-64
2022/03/11 11:48:44;;;;;;;24.63;13.23;;;;;;;;;;4965201;28;20582;-63
2022/03/11 11:51:21;;;;;;;20.67;13.45;;;;;;;;;;4964884;28;20081;-64
2022/03/11 11:53:50;;;;;;;28.40;14.30;;;;;;;;;;4979485;28;20073;-64
2022/03/11 11:56:36;;;;;;;21.58;13.43;;;;;;;;;;4968393;28;20073;-64
2022/03/11 11:59:03;;;;;;;23.00;13.63;;;;;;;;;;4960368;28;20051;-64
2022/03/11 12:01:39;;;;;;;26.73;14.50;;;;;;;;;;4959069;28;20050;-64
2022/03/11 12:04:19;;;;;;;22.05;14.25;;;;;;;;;;4973222;28;20259;-64
2022/03/11 12:07:02;;;;;;;25.13;14.27;;;;;;;;;;4972439;28;20558;-64
2022/03/11 12:12:07;;;;;;;22.77;13.70;;;;;;;;;;4951945;28;20050;-64
2022/03/11 12:14:54;;;;;;;21.20;14.15;;;;;;;;;;4973847;28;20054;-64
2022/03/11 12:17:38;;;;;;;22.77;13.10;;;;;;;;;;4970231;28;20073;-64
2022/03/11 12:20:24;;;;;;;22.83;13.23;;;;;;;;;;4970161;28;20047;-64
2022/03/11 12:22:54;;;;;;;18.75;12.82;;;;;;;;;;4965186;28;20046;-64
2022/03/11 12:25:21;;;;;;;18.65;14.05;;;;;;;;;;4972331;28;20046;-64
2022/03/11 12:28:00;;;;;;;18.90;12.63;;;;;;;;;;4968434;28;20055;-64
2022/03/11 12:30:27;;;;;;;22.65;13.30;;;;;;;;;;4962464;28;20451;-64
2022/03/11 12:32:53;;;;;;;20.42;14.27;;;;;;;;;;4970204;28;20050;-65
2022/03/11 12:35:20;;;;;;;22.95;14.25;;;;;;;;;;4960690;28;20051;-64
2022/03/11 12:37:47;;;;;;;22.70;13.60;;;;;;;;;;4970535;28;20424;-64
2022/03/11 12:40:13;;;;;;;21.30;14.00;;;;;;;;;;4976667;28;20069;-64
2022/03/11 12:42:40;;;;;;;19.08;13.30;;;;;;;;;;4976152;28;20062;-64
2022/03/11 12:45:07;;;;;;;23.15;13.90;;;;;;;;;;4986799;28;20054;-64
2022/03/11 12:47:38;;;;;;;19.48;12.63;;;;;;;;;;4976064;28;20647;-64
2022/03/11 12:50:06;;;;;;;24.67;15.10;;;;;;;;;;4983598;28;20057;-64
2022/03/11 12:52:36;;;;;;;23.60;14.07;;;;;;;;;;4965839;28;20051;-64
2022/03/11 12:55:18;;;;;;;23.85;14.32;;;;;;;;;;4975367;28;20488;-64
2022/03/11 12:57:44;;;;;;;28.60;14.23;;;;;;;;;;4961171;28;20043;-65
2022/03/11 13:00:18;;;;;;;23.33;13.60;;;;;;;;;;4971928;28;20422;-65
2022/03/11 13:02:46;;;;;;;20.75;14.10;;;;;;;;;;4967911;28;20640;-64
2022/03/11 13:05:21;;;;;;;27.02;14.50;;;;;;;;;;4980542;28;20052;-64
2022/03/11 13:07:48;;;;;;;25.60;15.63;;;;;;;;;;4963548;28;20053;-65
2022/03/11 13:10:23;;;;;;;23.10;14.50;;;;;;;;;;4972234;28;20515;-64
2022/03/11 13:12:50;;;;;;;22.40;13.73;;;;;;;;;;4972140;28;20069;-64
2022/03/11 13:15:22;;;;;;;20.60;14.15;;;;;;;;;;4973900;28;20697;-64
2022/03/11 13:17:51;;;;;;;23.73;13.32;;;;;;;;;;4971353;28;20507;-64
2022/03/11 13:20:26;;;;;;;20.40;13.63;;;;;;;;;;4958546;28;20055;-64
2022/03/11 13:22:53;;;;;;;20.40;14.20;;;;;;;;;;4961947;28;20055;-64
2022/03/11 13:25:23;;;;;;;16.45;12.38;;;;;;;;;;4974613;28;20061;-64
2022/03/11 13:27:49;;;;;;;18.98;13.65;;;;;;;;;;4964673;28;20050;-65
2022/03/11 13:30:15;;;;;;;21.10;13.48;;;;;;;;;;4966191;28;20084;-64
2022/03/11 13:32:42;;;;;;;19.65;12.95;;;;;;;;;;4969836;28;20076;-65
2022/03/11 13:35:08;;;;;;;21.98;14.88;;;;;;;;;;4963509;28;20070;-65
2022/03/11 13:37:44;;;;;;;19.25;13.40;;;;;;;;;;4968635;28;20057;-64
2022/03/11 13:40:30;;;;;;;20.60;13.27;;;;;;;;;;4969526;28;20058;-64
2022/03/11 13:42:58;;;;;;;24.02;13.75;;;;;;;;;;4979526;28;20047;-65
2022/03/11 13:45:25;;;;;;;25.83;13.48;;;;;;;;;;4964161;28;20050;-65
2022/03/11 13:48:02;;;;;;;18.05;12.45;;;;;;;;;;4976389;28;20050;-65
2022/03/11 13:50:28;;;;;;;19.25;12.60;;;;;;;;;;4960458;28;20646;-64
2022/03/11 13:52:57;;;;;;;25.92;13.98;;;;;;;;;;4968833;28;20387;-65
2022/03/11 13:55:36;;;;;;;21.70;12.80;;;;;;;;;;4965875;28;20472;-64
2022/03/11 13:58:16;;;;;;;17.83;12.13;;;;;;;;;;4973309;28;20042;-64
2022/03/11 14:00:42;;;;;;;27.85;12.50;;;;;;;;;;4959071;28;20512;-64
2022/03/11 14:03:16;;;;;;;29.48;13.65;;;;;;;;;;4964203;28;20082;-64
2022/03/11 14:05:43;;;;;;;21.20;13.77;;;;;;;;;;4965473;28;20055;-64
2022/03/11 14:08:12;;;;;;;20.30;13.02;;;;;;;;;;4961750;28;20118;-64
2022/03/11 14:10:40;;;;;;;22.65;14.13;;;;;;;;;;4973993;28;20415;-65
2022/03/11 14:13:08;;;;;;;20.80;12.88;;;;;;;;;;4959185;28;20087;-64
2022/03/11 14:15:39;;;;;;;20.25;12.68;;;;;;;;;;4969196;28;20109;-64
2022/03/11 14:18:11;;;;;;;23.40;13.65;;;;;;;;;;4961408;28;20046;-64
2022/03/11 14:20:58;;;;;;;23.35;14.50;;;;;;;;;;4977686;28;20206;-64
2022/03/11 14:23:24;;;;;;;19.95;12.88;;;;;;;;;;4968251;28;20050;-64
2022/03/11 14:25:51;;;;;;;18.15;12.65;;;;;;;;;;4973924;28;20050;-65
2022/03/11 14:28:20;;;;;;;24.88;14.80;;;;;;;;;;4972229;28;20061;-69
2022/03/11 14:30:47;;;;;;;16.83;12.15;;;;;;;;;;4963304;28;20141;-69
2022/03/11 14:33:13;;;;;;;21.75;13.55;;;;;;;;;;4979035;28;20057;-69